Weather at Montreal / St-Hubert Helicraft

Public forecast

Using degrees Celsius for public forecast. Weather courtesy of forecast.io.

Closest aviation weather report (METAR) to Montreal / St-Hubert Helicraft

Closest report is Montréal / Saint-Hubert Airport, 0.9 nm (1.7 km) SSW.

2024/05/21 00:00 (retrieved 58 minutes ago)

CYHU 210000Z AUTO 22007KT 9SM BKN210 26/14 A2985 RMK SLP109 DENSITY ALT 1500FT

Closest aviation forecast (TAF) to Montreal / St-Hubert Helicraft

Closest forecast is Trois-Rivières Airport, 58.0 nm (107.4 km) NNE.

2024/05/20 20:00 (retrieved 5 hours ago)

TAF CYRQ 201951Z 2020/2108 21010G20KT P6SM FEW060 BKN180 TEMPO 2020/2024 P6SM -SHRA BKN060 FM210100 31005KT P6SM SCT150 RMK FCST BASED ON AUTO OBS NXT FCST BY 210200Z